sensor_id;sensor_type;location;lat;lon;timestamp;temperature;humidity
40077;DHT22;25777;47.824;18.982;2023-03-14T00:00:21;5.10;95.30
40077;DHT22;25777;47.824;18.982;2023-03-14T00:02:53;5.10;95.10
40077;DHT22;25777;47.824;18.982;2023-03-14T00:05:25;5.10;94.90
40077;DHT22;25777;47.824;18.982;2023-03-14T00:07:59;5.10;95.90
40077;DHT22;25777;47.824;18.982;2023-03-14T00:10:33;5.00;95.10
40077;DHT22;25777;47.824;18.982;2023-03-14T00:13:04;5.20;93.60
40077;DHT22;25777;47.824;18.982;2023-03-14T00:15:34;5.30;93.50
40077;DHT22;25777;47.824;18.982;2023-03-14T00:18:01;5.30;93.70
40077;DHT22;25777;47.824;18.982;2023-03-14T00:20:27;5.40;93.30
40077;DHT22;25777;47.824;18.982;2023-03-14T00:22:59;5.60;93.00
40077;DHT22;25777;47.824;18.982;2023-03-14T00:25:26;5.50;92.40
40077;DHT22;25777;47.824;18.982;2023-03-14T00:27:54;5.60;92.10
40077;DHT22;25777;47.824;18.982;2023-03-14T00:30:20;5.60;91.90
40077;DHT22;25777;47.824;18.982;2023-03-14T00:32:53;5.60;91.30
40077;DHT22;25777;47.824;18.982;2023-03-14T00:35:21;5.80;91.30
40077;DHT22;25777;47.824;18.982;2023-03-14T00:37:50;5.70;91.60
40077;DHT22;25777;47.824;18.982;2023-03-14T00:40:16;5.60;91.30
40077;DHT22;25777;47.824;18.982;2023-03-14T00:42:42;5.60;91.50
40077;DHT22;25777;47.824;18.982;2023-03-14T00:45:08;5.50;92.10
40077;DHT22;25777;47.824;18.982;2023-03-14T00:47:35;5.40;91.70
40077;DHT22;25777;47.824;18.982;2023-03-14T00:50:04;5.40;92.10
40077;DHT22;25777;47.824;18.982;2023-03-14T00:52:32;5.30;92.70
40077;DHT22;25777;47.824;18.982;2023-03-14T00:54:59;5.30;92.10
40077;DHT22;25777;47.824;18.982;2023-03-14T00:57:26;5.30;92.00
40077;DHT22;25777;47.824;18.982;2023-03-14T00:59:54;5.20;92.10
40077;DHT22;25777;47.824;18.982;2023-03-14T01:02:20;5.10;92.00
40077;DHT22;25777;47.824;18.982;2023-03-14T01:04:49;5.00;92.60
40077;DHT22;25777;47.824;18.982;2023-03-14T01:07:16;5.10;92.40
40077;DHT22;25777;47.824;18.982;2023-03-14T01:09:42;5.10;92.00
40077;DHT22;25777;47.824;18.982;2023-03-14T01:12:08;5.20;92.10
40077;DHT22;25777;47.824;18.982;2023-03-14T01:14:34;5.20;91.90
40077;DHT22;25777;47.824;18.982;2023-03-14T01:17:21;5.10;91.80
40077;DHT22;25777;47.824;18.982;2023-03-14T01:19:48;5.10;92.10
40077;DHT22;25777;47.824;18.982;2023-03-14T01:22:15;5.00;91.90
40077;DHT22;25777;47.824;18.982;2023-03-14T01:24:42;5.10;92.40
40077;DHT22;25777;47.824;18.982;2023-03-14T01:27:08;5.00;92.20
40077;DHT22;25777;47.824;18.982;2023-03-14T01:29:34;5.10;91.70
40077;DHT22;25777;47.824;18.982;2023-03-14T01:32:04;5.20;91.70
40077;DHT22;25777;47.824;18.982;2023-03-14T01:34:43;5.30;91.10
40077;DHT22;25777;47.824;18.982;2023-03-14T01:37:09;5.30;90.70
40077;DHT22;25777;47.824;18.982;2023-03-14T01:39:38;5.40;90.60
40077;DHT22;25777;47.824;18.982;2023-03-14T01:42:11;5.40;90.70
40077;DHT22;25777;47.824;18.982;2023-03-14T01:45:00;5.30;90.80
40077;DHT22;25777;47.824;18.982;2023-03-14T01:47:26;5.20;90.80
40077;DHT22;25777;47.824;18.982;2023-03-14T01:50:01;5.20;90.90
40077;DHT22;25777;47.824;18.982;2023-03-14T01:52:53;5.10;91.30
40077;DHT22;25777;47.824;18.982;2023-03-14T01:55:24;5.10;90.90
40077;DHT22;25777;47.824;18.982;2023-03-14T01:57:58;5.20;90.50
40077;DHT22;25777;47.824;18.982;2023-03-14T02:00:26;5.20;91.00
40077;DHT22;25777;47.824;18.982;2023-03-14T02:02:56;5.10;91.00
40077;DHT22;25777;47.824;18.982;2023-03-14T02:05:31;5.00;91.20
40077;DHT22;25777;47.824;18.982;2023-03-14T02:08:02;5.00;91.20
40077;DHT22;25777;47.824;18.982;2023-03-14T02:10:31;5.00;90.80
40077;DHT22;25777;47.824;18.982;2023-03-14T02:13:01;5.00;91.30
40077;DHT22;25777;47.824;18.982;2023-03-14T02:15:35;4.90;90.90
40077;DHT22;25777;47.824;18.982;2023-03-14T02:18:08;4.90;90.90
40077;DHT22;25777;47.824;18.982;2023-03-14T02:28:56;5.00;90.40
40077;DHT22;25777;47.824;18.982;2023-03-14T02:31:46;5.00;90.20
40077;DHT22;25777;47.824;18.982;2023-03-14T02:34:23;5.10;90.50
40077;DHT22;25777;47.824;18.982;2023-03-14T02:36:52;5.30;89.30
40077;DHT22;25777;47.824;18.982;2023-03-14T02:39:26;5.30;88.60
40077;DHT22;25777;47.824;18.982;2023-03-14T02:41:58;5.20;87.90
40077;DHT22;25777;47.824;18.982;2023-03-14T02:44:24;5.40;87.90
40077;DHT22;25777;47.824;18.982;2023-03-14T02:46:51;5.40;87.80
40077;DHT22;25777;47.824;18.982;2023-03-14T02:49:17;5.40;87.30
40077;DHT22;25777;47.824;18.982;2023-03-14T02:51:43;5.30;88.10
40077;DHT22;25777;47.824;18.982;2023-03-14T02:54:15;5.20;89.20
40077;DHT22;25777;47.824;18.982;2023-03-14T02:56:49;5.10;89.00
40077;DHT22;25777;47.824;18.982;2023-03-14T02:59:16;5.00;90.10
40077;DHT22;25777;47.824;18.982;2023-03-14T03:01:42;5.00;90.10
40077;DHT22;25777;47.824;18.982;2023-03-14T03:04:09;4.90;90.10
40077;DHT22;25777;47.824;18.982;2023-03-14T03:06:37;4.90;90.00
40077;DHT22;25777;47.824;18.982;2023-03-14T03:09:13;4.80;90.10
40077;DHT22;25777;47.824;18.982;2023-03-14T03:11:39;4.80;90.40
40077;DHT22;25777;47.824;18.982;2023-03-14T03:14:07;4.70;90.70
40077;DHT22;25777;47.824;18.982;2023-03-14T03:16:35;4.70;90.40
40077;DHT22;25777;47.824;18.982;2023-03-14T03:19:01;4.70;90.60
40077;DHT22;25777;47.824;18.982;2023-03-14T03:21:59;4.60;90.80
40077;DHT22;25777;47.824;18.982;2023-03-14T03:24:26;4.50;91.10
40077;DHT22;25777;47.824;18.982;2023-03-14T03:26:54;4.50;91.10
40077;DHT22;25777;47.824;18.982;2023-03-14T03:29:22;4.50;91.20
40077;DHT22;25777;47.824;18.982;2023-03-14T03:31:48;4.40;91.10
40077;DHT22;25777;47.824;18.982;2023-03-14T03:34:15;4.40;91.20
40077;DHT22;25777;47.824;18.982;2023-03-14T03:36:41;4.40;91.20
40077;DHT22;25777;47.824;18.982;2023-03-14T03:39:08;4.30;91.60
40077;DHT22;25777;47.824;18.982;2023-03-14T03:41:56;4.30;91.80
40077;DHT22;25777;47.824;18.982;2023-03-14T03:44:25;4.30;91.90
40077;DHT22;25777;47.824;18.982;2023-03-14T03:46:53;4.20;92.00
40077;DHT22;25777;47.824;18.982;2023-03-14T03:49:19;4.20;91.90
40077;DHT22;25777;47.824;18.982;2023-03-14T03:51:45;4.10;92.20
40077;DHT22;25777;47.824;18.982;2023-03-14T03:54:11;4.00;92.00
40077;DHT22;25777;47.824;18.982;2023-03-14T03:56:40;4.00;92.30
40077;DHT22;25777;47.824;18.982;2023-03-14T03:59:08;4.00;92.50
40077;DHT22;25777;47.824;18.982;2023-03-14T04:01:34;3.90;93.00
40077;DHT22;25777;47.824;18.982;2023-03-14T04:04:21;3.90;92.90
40077;DHT22;25777;47.824;18.982;2023-03-14T04:06:47;3.90;93.20
40077;DHT22;25777;47.824;18.982;2023-03-14T04:09:13;3.80;93.90
40077;DHT22;25777;47.824;18.982;2023-03-14T04:11:47;3.70;94.40
40077;DHT22;25777;47.824;18.982;2023-03-14T04:14:18;3.70;93.60
40077;DHT22;25777;47.824;18.982;2023-03-14T04:17:03;3.80;93.40
40077;DHT22;25777;47.824;18.982;2023-03-14T04:19:44;4.00;93.20
40077;DHT22;25777;47.824;18.982;2023-03-14T04:22:19;4.20;92.80
40077;DHT22;25777;47.824;18.982;2023-03-14T04:24:45;4.20;92.80
40077;DHT22;25777;47.824;18.982;2023-03-14T04:27:12;4.20;93.40
40077;DHT22;25777;47.824;18.982;2023-03-14T04:29:43;4.20;92.90
40077;DHT22;25777;47.824;18.982;2023-03-14T04:32:34;4.20;92.80
40077;DHT22;25777;47.824;18.982;2023-03-14T04:35:07;4.00;93.60
40077;DHT22;25777;47.824;18.982;2023-03-14T04:37:34;3.90;93.50
40077;DHT22;25777;47.824;18.982;2023-03-14T04:40:18;3.90;93.80
40077;DHT22;25777;47.824;18.982;2023-03-14T04:42:45;3.80;94.30
40077;DHT22;25777;47.824;18.982;2023-03-14T04:45:10;3.80;94.30
40077;DHT22;25777;47.824;18.982;2023-03-14T04:47:37;3.80;94.00
40077;DHT22;25777;47.824;18.982;2023-03-14T04:50:15;3.80;94.00
40077;DHT22;25777;47.824;18.982;2023-03-14T04:52:41;3.60;95.00
40077;DHT22;25777;47.824;18.982;2023-03-14T04:55:11;3.70;95.60
40077;DHT22;25777;47.824;18.982;2023-03-14T04:57:43;3.70;95.70
40077;DHT22;25777;47.824;18.982;2023-03-14T05:00:11;3.70;95.60
40077;DHT22;25777;47.824;18.982;2023-03-14T05:02:37;3.70;95.60
40077;DHT22;25777;47.824;18.982;2023-03-14T05:05:04;3.60;95.70
40077;DHT22;25777;47.824;18.982;2023-03-14T05:07:30;3.60;96.10
40077;DHT22;25777;47.824;18.982;2023-03-14T05:09:57;3.70;95.60
40077;DHT22;25777;47.824;18.982;2023-03-14T05:12:36;3.70;95.10
40077;DHT22;25777;47.824;18.982;2023-03-14T05:15:03;3.80;95.60
40077;DHT22;25777;47.824;18.982;2023-03-14T05:17:32;3.80;95.90
40077;DHT22;25777;47.824;18.982;2023-03-14T05:20:01;3.80;96.20
40077;DHT22;25777;47.824;18.982;2023-03-14T05:22:41;3.80;96.20
40077;DHT22;25777;47.824;18.982;2023-03-14T05:25:15;3.80;96.50
40077;DHT22;25777;47.824;18.982;2023-03-14T05:27:44;3.80;96.50
40077;DHT22;25777;47.824;18.982;2023-03-14T05:30:32;3.80;96.90
40077;DHT22;25777;47.824;18.982;2023-03-14T05:33:12;3.80;97.00
40077;DHT22;25777;47.824;18.982;2023-03-14T05:35:41;3.70;97.20
40077;DHT22;25777;47.824;18.982;2023-03-14T05:38:15;3.80;97.80
40077;DHT22;25777;47.824;18.982;2023-03-14T05:40:45;3.80;97.50
40077;DHT22;25777;47.824;18.982;2023-03-14T05:43:12;3.90;97.30
40077;DHT22;25777;47.824;18.982;2023-03-14T05:45:40;4.00;96.90
40077;DHT22;25777;47.824;18.982;2023-03-14T05:48:06;4.00;96.90
40077;DHT22;25777;47.824;18.982;2023-03-14T05:50:36;4.20;97.00
40077;DHT22;25777;47.824;18.982;2023-03-14T05:53:09;4.30;96.70
40077;DHT22;25777;47.824;18.982;2023-03-14T05:55:58;4.40;95.70
40077;DHT22;25777;47.824;18.982;2023-03-14T05:58:24;4.60;96.00
40077;DHT22;25777;47.824;18.982;2023-03-14T06:00:51;4.60;95.70
40077;DHT22;25777;47.824;18.982;2023-03-14T06:03:19;4.70;95.10
40077;DHT22;25777;47.824;18.982;2023-03-14T06:05:51;4.80;94.90
40077;DHT22;25777;47.824;18.982;2023-03-14T06:08:20;5.00;94.10
40077;DHT22;25777;47.824;18.982;2023-03-14T06:10:57;5.00;95.30
40077;DHT22;25777;47.824;18.982;2023-03-14T06:13:44;5.10;93.60
40077;DHT22;25777;47.824;18.982;2023-03-14T06:16:24;5.10;93.40
40077;DHT22;25777;47.824;18.982;2023-03-14T06:18:59;5.20;94.10
40077;DHT22;25777;47.824;18.982;2023-03-14T06:21:25;5.20;93.90
40077;DHT22;25777;47.824;18.982;2023-03-14T06:23:51;5.20;93.50
40077;DHT22;25777;47.824;18.982;2023-03-14T06:26:19;5.30;93.40
40077;DHT22;25777;47.824;18.982;2023-03-14T06:28:45;5.30;94.00
40077;DHT22;25777;47.824;18.982;2023-03-14T06:31:13;5.30;93.00
40077;DHT22;25777;47.824;18.982;2023-03-14T06:33:40;5.50;93.60
40077;DHT22;25777;47.824;18.982;2023-03-14T06:36:06;5.50;93.90
40077;DHT22;25777;47.824;18.982;2023-03-14T06:38:33;5.60;93.20
40077;DHT22;25777;47.824;18.982;2023-03-14T06:41:08;5.60;92.70
40077;DHT22;25777;47.824;18.982;2023-03-14T06:43:39;5.70;93.20
40077;DHT22;25777;47.824;18.982;2023-03-14T06:46:05;5.80;92.80
40077;DHT22;25777;47.824;18.982;2023-03-14T06:48:50;6.00;92.40
40077;DHT22;25777;47.824;18.982;2023-03-14T06:51:22;6.10;92.70
40077;DHT22;25777;47.824;18.982;2023-03-14T06:53:55;6.20;92.30
40077;DHT22;25777;47.824;18.982;2023-03-14T06:56:23;6.40;91.70
40077;DHT22;25777;47.824;18.982;2023-03-14T06:58:51;6.60;91.90
40077;DHT22;25777;47.824;18.982;2023-03-14T07:01:28;6.80;91.60
40077;DHT22;25777;47.824;18.982;2023-03-14T07:03:58;7.00;90.90
40077;DHT22;25777;47.824;18.982;2023-03-14T07:06:28;7.00;91.20
40077;DHT22;25777;47.824;18.982;2023-03-14T07:09:00;7.10;90.70
40077;DHT22;25777;47.824;18.982;2023-03-14T07:11:30;7.30;90.30
40077;DHT22;25777;47.824;18.982;2023-03-14T07:13:56;7.40;90.60
40077;DHT22;25777;47.824;18.982;2023-03-14T07:16:22;7.50;90.60
40077;DHT22;25777;47.824;18.982;2023-03-14T07:18:48;7.60;90.80
40077;DHT22;25777;47.824;18.982;2023-03-14T07:21:15;7.60;90.60
40077;DHT22;25777;47.824;18.982;2023-03-14T07:23:44;7.70;90.00
40077;DHT22;25777;47.824;18.982;2023-03-14T07:26:14;7.80;90.10
40077;DHT22;25777;47.824;18.982;2023-03-14T07:28:58;7.90;90.60
40077;DHT22;25777;47.824;18.982;2023-03-14T07:31:24;8.00;90.00
40077;DHT22;25777;47.824;18.982;2023-03-14T07:34:04;8.10;88.50
40077;DHT22;25777;47.824;18.982;2023-03-14T07:36:35;8.30;89.00
40077;DHT22;25777;47.824;18.982;2023-03-14T07:39:07;8.50;90.40
40077;DHT22;25777;47.824;18.982;2023-03-14T07:41:37;8.70;86.80
40077;DHT22;25777;47.824;18.982;2023-03-14T07:44:03;8.80;85.80
40077;DHT22;25777;47.824;18.982;2023-03-14T07:46:33;9.00;85.50
40077;DHT22;25777;47.824;18.982;2023-03-14T07:48:59;9.10;84.30
40077;DHT22;25777;47.824;18.982;2023-03-14T07:51:25;9.20;84.80
40077;DHT22;25777;47.824;18.982;2023-03-14T07:53:54;9.30;84.90
40077;DHT22;25777;47.824;18.982;2023-03-14T07:56:24;9.30;84.70
40077;DHT22;25777;47.824;18.982;2023-03-14T07:58:52;9.40;84.40
40077;DHT22;25777;47.824;18.982;2023-03-14T08:01:21;9.40;84.50
40077;DHT22;25777;47.824;18.982;2023-03-14T08:03:53;9.60;83.00
40077;DHT22;25777;47.824;18.982;2023-03-14T08:06:19;9.80;84.60
40077;DHT22;25777;47.824;18.982;2023-03-14T08:08:53;10.00;83.10
40077;DHT22;25777;47.824;18.982;2023-03-14T08:11:19;10.20;83.90
40077;DHT22;25777;47.824;18.982;2023-03-14T08:13:47;10.40;82.60
40077;DHT22;25777;47.824;18.982;2023-03-14T08:16:17;10.60;81.80
40077;DHT22;25777;47.824;18.982;2023-03-14T08:18:52;10.70;81.00
40077;DHT22;25777;47.824;18.982;2023-03-14T08:21:20;10.90;78.10
40077;DHT22;25777;47.824;18.982;2023-03-14T08:23:48;11.10;80.20
40077;DHT22;25777;47.824;18.982;2023-03-14T08:26:15;11.30;79.10
40077;DHT22;25777;47.824;18.982;2023-03-14T08:28:41;11.60;76.90
40077;DHT22;25777;47.824;18.982;2023-03-14T08:31:08;11.90;76.50
40077;DHT22;25777;47.824;18.982;2023-03-14T08:33:34;12.10;77.50
40077;DHT22;25777;47.824;18.982;2023-03-14T08:36:01;12.10;74.20
40077;DHT22;25777;47.824;18.982;2023-03-14T08:38:27;12.10;75.60
40077;DHT22;25777;47.824;18.982;2023-03-14T08:40:58;12.20;77.60
40077;DHT22;25777;47.824;18.982;2023-03-14T08:43:26;12.50;74.10
40077;DHT22;25777;47.824;18.982;2023-03-14T08:45:53;12.50;74.00
